メインページ
METAR-TAF:

METAR-TAF

空港 :

マルティニーク・エメ・セゼール国際空港

フォール=ド=フランス, マルティニーク

緯度: 14-36N, 経度: 061-00W, 海抜: 5m

現時点の気象観測

当レポートは39分前の10:00(UTC)に作成
東/南東の風 12kt
気温 25°C
湿度 79%
気圧 1016 hPa
視程10km以上
高度2500ftの千切れ雲あり
高度5200ftの千切れ雲あり

METAR: TFFF 211000Z AUTO 11012KT 9999 BKN025 BKN052 25/21 Q1016

時間: 06:39 (10:39 UTC)

予報

当レポートは18時間39分前の16:00(UTC)に作成
予報は20日の 18時(UTC)から 21日の 18時(UTC)まで有効
東/南東の風 10kt
視程10km以上
高度3500ftの雲は散在している
20日の 18時(UTC)から 20日の 21時(UTC)まで一時的に
東/南東の風 17kt、最大27ktの突風を伴う
確率 30% :
20日の 18時(UTC)から 20日の 24時(UTC)まで一時的に
視程: 4000m
高度1800ftの雲は散在している, 塔状積雲.
高度2500ftの雲は散在している
にわか雨

TAF: TFFF 201600Z 2018/2118 11010KT 9999 SCT035 TEMPO 2018/2021 11017G27KT PROB30 TEMPO 2018/2024 4000 SHRA SCT018TCU SCT025

4,000以上の空港の気象観測と天気予報(METAR報とTAF報)

利用可能な観測所は地図上に黄色い丸と赤い丸で示す。

丸の上にカーソルを重ねると観測所名を参照できる。

次にクリックすると気象観測と天気予報を参照できる。

マップの切り替え:黒色「×」印の緑ボタンをクリックして拡大、「-」印の緑ボタンをクリックして縮小、緑色の三角印をクリックして隣りの地図に切り替え


METAR-TAF: